Time;durP1;ratioP1;P1;durP2;ratioP2;P2;SDS_P1;SDS_P2;PMS_P1;PMS_P2;Temp;Humidity;BMP_temperature;BMP_pressure;BME280_temperature;BME280_humidity;BME280_pressure;Samples;Min_cycle;Max_cycle;Signal;HPM_P1;HPM_P2
2023/12/23 00:00:23;;;;;;;0.45;0.45;;;17.20;53.40;;;;;;5168882;27;45264;-66
2023/12/23 00:02:50;;;;;;;0.68;0.40;;;17.20;53.40;;;;;;5169444;27;45337;-66
2023/12/23 00:05:18;;;;;;;0.80;0.60;;;17.20;53.40;;;;;;5168693;27;45449;-66
2023/12/23 00:07:46;;;;;;;0.40;0.40;;;17.20;53.40;;;;;;5168741;27;45403;-66
2023/12/23 00:10:14;;;;;;;0.70;0.70;;;17.20;53.40;;;;;;5168701;27;45260;-66
2023/12/23 00:12:41;;;;;;;0.45;0.40;;;17.10;53.40;;;;;;5168902;27;45431;-66
2023/12/23 00:15:08;;;;;;;0.47;0.43;;;17.10;53.40;;;;;;5169689;27;46674;-66
2023/12/23 00:17:35;;;;;;;0.30;0.30;;;17.10;53.40;;;;;;5172073;27;45378;-66
2023/12/23 00:20:02;;;;;;;0.52;0.40;;;17.10;53.40;;;;;;5172404;27;45183;-66
2023/12/23 00:22:29;;;;;;;0.93;0.35;;;17.10;53.40;;;;;;5180866;27;45111;-66
2023/12/23 00:24:57;;;;;;;0.32;0.32;;;17.10;53.50;;;;;;5193380;27;45412;-66
2023/12/23 00:27:24;;;;;;;0.30;0.30;;;17.00;53.50;;;;;;5193351;27;45602;-66
2023/12/23 00:29:51;;;;;;;0.88;0.50;;;17.00;53.50;;;;;;5193286;27;45224;-66
2023/12/23 00:32:17;;;;;;;0.40;0.40;;;17.00;53.50;;;;;;5193372;27;45312;-65
2023/12/23 00:34:44;;;;;;;0.52;0.50;;;17.00;53.50;;;;;;5192489;27;45309;-66
2023/12/23 00:37:11;;;;;;;0.30;0.30;;;17.00;53.60;;;;;;5192896;27;45426;-66
2023/12/23 00:39:39;;;;;;;0.47;0.47;;;17.00;53.60;;;;;;5183244;27;45361;-66
2023/12/23 00:42:07;;;;;;;0.75;0.40;;;16.90;53.50;;;;;;5172257;27;45361;-66
2023/12/23 00:44:34;;;;;;;0.40;0.40;;;16.90;53.50;;;;;;5171554;27;46359;-66
2023/12/23 00:47:02;;;;;;;0.40;0.40;;;16.90;53.50;;;;;;5171665;27;45377;-66
2023/12/23 00:49:29;;;;;;;0.50;0.50;;;16.90;53.60;;;;;;5168133;27;45450;-66
2023/12/23 00:51:56;;;;;;;0.38;0.20;;;16.90;53.60;;;;;;5150925;27;45361;-66
2023/12/23 00:54:23;;;;;;;0.30;0.28;;;16.90;53.60;;;;;;5150557;27;46682;-66
2023/12/23 00:56:50;;;;;;;0.20;0.20;;;16.90;53.60;;;;;;5147511;27;45305;-66
2023/12/23 00:59:18;;;;;;;0.35;0.30;;;16.80;53.60;;;;;;5150440;27;45394;-66
2023/12/23 01:01:45;;;;;;;0.50;0.50;;;16.80;53.60;;;;;;5150712;27;45480;-66
2023/12/23 01:04:12;;;;;;;0.50;0.40;;;16.80;53.60;;;;;;5150064;27;46258;-66
2023/12/23 01:06:39;;;;;;;0.40;0.40;;;16.80;53.60;;;;;;5150026;27;45249;-66
2023/12/23 01:09:05;;;;;;;0.40;0.40;;;16.70;53.60;;;;;;5150138;27;45230;-66
2023/12/23 01:11:32;;;;;;;0.40;0.40;;;16.80;53.70;;;;;;5150522;27;45496;-66
2023/12/23 01:13:59;;;;;;;0.30;0.30;;;16.70;53.60;;;;;;5149853;27;45346;-66
2023/12/23 01:16:27;;;;;;;0.30;0.30;;;16.70;53.70;;;;;;5149668;27;45309;-65
2023/12/23 01:18:54;;;;;;;0.38;0.38;;;16.70;53.70;;;;;;5149711;27;45390;-66
2023/12/23 01:21:21;;;;;;;0.22;0.22;;;16.70;53.70;;;;;;5150521;27;45390;-66
2023/12/23 01:23:48;;;;;;;0.32;0.32;;;16.70;53.70;;;;;;5169728;27;45624;-66
2023/12/23 01:26:15;;;;;;;0.45;0.40;;;16.70;53.70;;;;;;5169959;27;45475;-66
2023/12/23 01:28:41;;;;;;;0.30;0.30;;;16.70;53.70;;;;;;5171077;27;45317;-66
2023/12/23 01:31:08;;;;;;;0.47;0.47;;;16.70;53.70;;;;;;5171371;27;45136;-66
2023/12/23 01:33:36;;;;;;;0.30;0.30;;;16.60;53.70;;;;;;5170955;27;45367;-66
2023/12/23 01:36:05;;;;;;;0.50;0.40;;;16.60;53.60;;;;;;5170778;27;45317;-66
2023/12/23 01:38:33;;;;;;;0.60;0.50;;;16.60;53.60;;;;;;5170994;27;45346;-66
2023/12/23 01:40:59;;;;;;;0.30;0.30;;;16.60;53.70;;;;;;5172471;27;45305;-66
2023/12/23 01:43:26;;;;;;;0.30;0.28;;;16.60;53.70;;;;;;5172037;27;46352;-66
2023/12/23 01:45:55;;;;;;;0.70;0.43;;;16.60;53.70;;;;;;5171768;27;45444;-66
2023/12/23 01:48:22;;;;;;;0.38;0.30;;;16.50;53.60;;;;;;5172084;27;45183;-66
2023/12/23 01:50:50;;;;;;;0.52;0.50;;;16.60;53.70;;;;;;5155357;27;45443;-66
2023/12/23 01:53:17;;;;;;;0.30;0.30;;;16.60;53.70;;;;;;5149819;27;45449;-66
2023/12/23 01:55:44;;;;;;;0.32;0.30;;;16.50;53.60;;;;;;5150764;27;45393;-66
2023/12/23 01:58:11;;;;;;;0.40;0.40;;;16.50;53.60;;;;;;5151121;27;45211;-66
2023/12/23 02:00:38;;;;;;;0.65;0.40;;;16.50;53.70;;;;;;5150918;27;45465;-65
2023/12/23 02:03:05;;;;;;;0.50;0.50;;;16.50;53.60;;;;;;5148764;27;45278;-66
2023/12/23 02:05:32;;;;;;;0.40;0.40;;;16.50;53.70;;;;;;5149383;27;45247;-66
2023/12/23 02:08:01;;;;;;;0.43;0.43;;;16.50;53.70;;;;;;5149672;27;45377;-66
2023/12/23 02:10:27;;;;;;;1.27;0.50;;;16.50;53.70;;;;;;5150455;27;45142;-66
2023/12/23 02:13:03;;;;;;;0.63;0.50;;;16.50;53.70;;;;;;5150222;27;46276;-66
2023/12/23 02:15:30;;;;;;;0.25;0.25;;;16.50;53.70;;;;;;5149429;27;44830;-66
2023/12/23 02:18:00;;;;;;;0.35;0.35;;;16.40;53.70;;;;;;5150254;27;45577;-66
2023/12/23 02:20:27;;;;;;;1.33;0.40;;;16.40;53.70;;;;;;5150389;27;45320;-66
2023/12/23 02:22:55;;;;;;;0.57;0.32;;;16.40;53.70;;;;;;5161658;27;46406;-66
2023/12/23 02:25:23;;;;;;;0.17;0.17;;;16.40;53.70;;;;;;5171352;27;45357;-66
2023/12/23 02:27:52;;;;;;;0.40;0.40;;;16.40;53.70;;;;;;5170885;27;45442;-66
2023/12/23 02:30:19;;;;;;;1.17;0.55;;;16.40;53.70;;;;;;5170201;27;45411;-66
2023/12/23 02:32:46;;;;;;;0.40;0.40;;;16.40;53.80;;;;;;5169812;27;45306;-66
2023/12/23 02:35:13;;;;;;;0.20;0.20;;;16.40;53.70;;;;;;5169817;27;45384;-66
2023/12/23 02:37:41;;;;;;;0.38;0.38;;;16.30;53.70;;;;;;5170864;27;45324;-66
2023/12/23 02:40:10;;;;;;;0.40;0.40;;;16.30;53.70;;;;;;5170551;27;46001;-66
2023/12/23 02:42:37;;;;;;;0.43;0.43;;;16.30;53.70;;;;;;5170919;27;45383;-66
2023/12/23 02:45:05;;;;;;;0.30;0.30;;;16.30;53.70;;;;;;5170155;27;45541;-65
2023/12/23 02:47:32;;;;;;;0.32;0.30;;;16.30;53.70;;;;;;5169772;27;45248;-65
2023/12/23 02:49:59;;;;;;;0.35;0.35;;;16.30;53.70;;;;;;5161556;27;45311;-66
2023/12/23 02:52:26;;;;;;;0.40;0.28;;;16.30;53.70;;;;;;5148812;27;46396;-66
2023/12/23 02:54:53;;;;;;;0.30;0.30;;;16.30;53.80;;;;;;5149553;27;45427;-66
2023/12/23 02:57:21;;;;;;;0.50;0.50;;;16.30;53.80;;;;;;5148929;27;45370;-66
2023/12/23 02:59:48;;;;;;;0.43;0.32;;;16.30;53.80;;;;;;5149197;27;45180;-66
2023/12/23 03:02:15;;;;;;;0.88;0.32;;;16.20;53.70;;;;;;5149043;27;45463;-66
2023/12/23 03:04:42;;;;;;;0.40;0.40;;;16.20;53.70;;;;;;5148973;27;45338;-66
2023/12/23 03:07:09;;;;;;;0.65;0.30;;;16.20;53.70;;;;;;5149293;27;45286;-66
2023/12/23 03:09:36;;;;;;;0.30;0.30;;;16.20;53.70;;;;;;5148633;27;45521;-66
2023/12/23 03:12:03;;;;;;;0.50;0.40;;;16.20;53.70;;;;;;5148616;27;45470;-66
2023/12/23 03:14:31;;;;;;;1.02;0.28;;;16.20;53.80;;;;;;5148628;27;45252;-66
2023/12/23 03:16:58;;;;;;;1.13;0.43;;;16.20;53.80;;;;;;5148445;27;45472;-66
2023/12/23 03:19:25;;;;;;;0.32;0.32;;;16.20;53.70;;;;;;5149118;27;45446;-66
2023/12/23 03:21:52;;;;;;;0.70;0.45;;;16.20;53.70;;;;;;5151244;27;45287;-66
2023/12/23 03:24:19;;;;;;;0.30;0.30;;;16.20;53.70;;;;;;5169390;27;45229;-66
2023/12/23 03:26:45;;;;;;;0.30;0.30;;;16.10;53.70;;;;;;5169333;27;45313;-65
2023/12/23 03:29:12;;;;;;;0.68;0.20;;;16.10;53.70;;;;;;5169107;27;45358;-66
2023/12/23 03:31:40;;;;;;;0.28;0.28;;;16.10;53.70;;;;;;5169712;27;46432;-67
2023/12/23 03:34:07;;;;;;;0.80;0.40;;;16.10;53.70;;;;;;5169208;27;45229;-66
2023/12/23 03:36:34;;;;;;;0.43;0.35;;;16.10;53.80;;;;;;5169393;27;45382;-66
2023/12/23 03:39:01;;;;;;;0.40;0.40;;;16.10;53.80;;;;;;5169199;27;45247;-66
2023/12/23 03:41:28;;;;;;;1.05;0.43;;;16.10;53.90;;;;;;5169189;27;46375;-67
2023/12/23 03:43:55;;;;;;;0.50;0.38;;;16.10;53.80;;;;;;5168959;27;45384;-67
2023/12/23 03:46:22;;;;;;;0.20;0.20;;;16.10;53.80;;;;;;5169112;27;45384;-66
2023/12/23 03:48:50;;;;;;;0.20;0.20;;;16.10;53.80;;;;;;5169247;27;45549;-66
2023/12/23 03:51:17;;;;;;;0.38;0.38;;;16.10;53.80;;;;;;5151855;27;45307;-66
2023/12/23 03:53:44;;;;;;;0.80;0.40;;;16.00;53.80;;;;;;5151570;27;45449;-67
2023/12/23 03:56:11;;;;;;;0.38;0.38;;;16.00;53.80;;;;;;5151803;27;45393;-67
2023/12/23 03:58:38;;;;;;;0.40;0.40;;;16.00;53.80;;;;;;5151731;27;45183;-66
2023/12/23 04:01:05;;;;;;;0.30;0.30;;;16.00;53.90;;;;;;5151092;27;45289;-67
2023/12/23 04:03:32;;;;;;;0.95;0.50;;;16.00;53.90;;;;;;5151410;27;45274;-67
2023/12/23 04:06:01;;;;;;;0.63;0.43;;;16.00;53.90;;;;;;5151586;27;45503;-66
2023/12/23 04:08:28;;;;;;;2.00;0.40;;;16.00;54.00;;;;;;5151544;27;45144;-66
2023/12/23 04:10:55;;;;;;;1.55;0.43;;;16.00;54.10;;;;;;5150855;27;45257;-67
2023/12/23 04:13:22;;;;;;;0.75;0.50;;;16.00;54.00;;;;;;5151192;27;45258;-66
2023/12/23 04:15:49;;;;;;;0.30;0.30;;;16.10;53.90;;;;;;5150684;27;45491;-66
2023/12/23 04:18:16;;;;;;;0.40;0.40;;;16.10;53.70;;;;;;5151237;27;45378;-67
2023/12/23 04:20:43;;;;;;;0.52;0.30;;;16.20;53.60;;;;;;5150979;27;46405;-67
2023/12/23 04:23:11;;;;;;;0.35;0.30;;;16.30;53.40;;;;;;5150968;27;45268;-66
2023/12/23 04:25:38;;;;;;;0.35;0.20;;;16.30;53.10;;;;;;5151053;27;45349;-67
2023/12/23 04:28:05;;;;;;;0.88;0.22;;;16.50;53.00;;;;;;5151059;27;45672;-67
2023/12/23 04:30:32;;;;;;;0.45;0.20;;;16.60;52.70;;;;;;5150776;27;46357;-67
2023/12/23 04:32:59;;;;;;;0.22;0.20;;;16.70;52.50;;;;;;5151291;27;45246;-67
2023/12/23 04:35:26;;;;;;;0.82;0.47;;;16.80;52.30;;;;;;5151033;27;45195;-66
2023/12/23 04:37:53;;;;;;;0.40;0.38;;;16.90;52.00;;;;;;5151179;27;45391;-67
2023/12/23 04:40:21;;;;;;;0.20;0.20;;;17.00;51.90;;;;;;5150625;27;46596;-66
2023/12/23 04:42:48;;;;;;;1.23;0.30;;;17.10;51.60;;;;;;5150832;27;45204;-65
2023/12/23 04:45:15;;;;;;;0.32;0.32;;;17.20;51.50;;;;;;5150587;27;45224;-67
2023/12/23 04:47:42;;;;;;;0.30;0.28;;;17.30;51.30;;;;;;5150905;27;45237;-67
2023/12/23 04:50:09;;;;;;;0.68;0.30;;;17.30;51.10;;;;;;5157378;27;46306;-68
2023/12/23 04:52:36;;;;;;;0.50;0.30;;;17.40;50.90;;;;;;5171488;27;45422;-67
2023/12/23 04:55:05;;;;;;;0.10;0.10;;;17.50;50.80;;;;;;5171578;27;45384;-66
2023/12/23 04:57:34;;;;;;;0.43;0.40;;;17.50;50.60;;;;;;5172074;27;45422;-66
2023/12/23 05:00:00;;;;;;;0.20;0.20;;;17.60;50.60;;;;;;5170717;27;46510;-66
2023/12/23 05:02:27;;;;;;;0.47;0.32;;;17.70;50.40;;;;;;5171344;27;45356;-67
2023/12/23 05:04:54;;;;;;;0.28;0.20;;;17.70;50.30;;;;;;5171871;27;45260;-66
2023/12/23 05:07:21;;;;;;;0.20;0.20;;;17.80;50.20;;;;;;5171780;27;45280;-66
2023/12/23 05:09:48;;;;;;;0.30;0.30;;;17.80;50.20;;;;;;5171609;27;46743;-66
2023/12/23 05:12:14;;;;;;;0.20;0.20;;;17.90;50.00;;;;;;5171492;27;45323;-67
2023/12/23 05:14:43;;;;;;;0.13;0.10;;;17.90;50.00;;;;;;5171559;27;45376;-67
2023/12/23 05:17:09;;;;;;;0.10;0.03;;;17.90;49.90;;;;;;5171748;27;45244;-67
2023/12/23 05:19:39;;;;;;;0.43;0.20;;;17.90;49.90;;;;;;5171696;27;46349;-67
2023/12/23 05:22:06;;;;;;;0.20;0.20;;;17.90;49.90;;;;;;5171154;27;45420;-66
2023/12/23 05:24:33;;;;;;;0.20;0.17;;;18.00;49.90;;;;;;5171254;27;45247;-66
2023/12/23 05:27:00;;;;;;;0.43;0.17;;;18.00;49.80;;;;;;5171506;27;45337;-66
2023/12/23 05:29:27;;;;;;;0.35;0.10;;;18.00;49.70;;;;;;5171067;27;47344;-67
2023/12/23 05:31:55;;;;;;;0.10;0.10;;;18.00;49.70;;;;;;5168276;27;45477;-67
2023/12/23 05:34:22;;;;;;;0.10;0.10;;;18.10;49.70;;;;;;5170968;27;45315;-67
2023/12/23 05:36:53;;;;;;;0.10;0.10;;;18.10;49.60;;;;;;5171406;27;45460;-67
2023/12/23 05:39:20;;;;;;;0.20;0.20;;;18.10;49.50;;;;;;5170717;27;45395;-67
2023/12/23 05:41:47;;;;;;;0.28;0.28;;;18.10;49.40;;;;;;5171041;27;45376;-67
2023/12/23 05:44:14;;;;;;;0.47;0.22;;;18.20;49.50;;;;;;5170296;27;45272;-67
2023/12/23 05:46:41;;;;;;;0.47;0.30;;;18.20;49.50;;;;;;5171145;27;45133;-67
2023/12/23 05:49:09;;;;;;;0.17;0.17;;;18.20;49.40;;;;;;5170595;27;45307;-67
2023/12/23 05:51:36;;;;;;;1.00;0.20;;;18.20;49.40;;;;;;5170721;27;45342;-67
2023/12/23 05:54:03;;;;;;;0.38;0.20;;;18.20;49.40;;;;;;5170820;27;45476;-67
2023/12/23 05:56:29;;;;;;;0.10;0.10;;;18.20;49.40;;;;;;5170920;27;45316;-67
2023/12/23 05:58:57;;;;;;;0.20;0.20;;;18.20;49.40;;;;;;5170693;27;47302;-67
2023/12/23 06:01:24;;;;;;;0.25;0.20;;;18.20;49.40;;;;;;5170530;27;45335;-67
2023/12/23 06:03:51;;;;;;;0.05;0.05;;;18.20;49.30;;;;;;5171037;27;45233;-67
2023/12/23 06:06:19;;;;;;;0.47;0.15;;;18.20;49.30;;;;;;5170724;27;45346;-67
2023/12/23 06:08:46;;;;;;;0.10;0.10;;;18.20;49.30;;;;;;5170473;27;46308;-67
2023/12/23 06:11:13;;;;;;;0.10;0.10;;;18.20;49.60;;;;;;5170446;27;45290;-67
2023/12/23 06:13:40;;;;;;;0.30;0.30;;;18.30;49.30;;;;;;5169859;27;45476;-67
2023/12/23 06:16:07;;;;;;;0.22;0.22;;;18.30;49.20;;;;;;5170605;27;45479;-67
2023/12/23 06:18:34;;;;;;;0.10;0.10;;;18.30;49.20;;;;;;5170398;27;45666;-67
2023/12/23 06:21:01;;;;;;;0.63;0.15;;;18.30;49.20;;;;;;5170359;27;45286;-67
2023/12/23 06:23:29;;;;;;;0.17;0.17;;;18.30;49.20;;;;;;5170284;27;45245;-66
2023/12/23 06:25:56;;;;;;;0.30;0.30;;;18.30;49.20;;;;;;5169825;27;45414;-66
2023/12/23 06:28:22;;;;;;;0.57;0.10;;;18.30;49.20;;;;;;5169862;27;46706;-67
2023/12/23 06:30:49;;;;;;;0.20;0.20;;;18.30;49.10;;;;;;5170102;27;45344;-67
2023/12/23 06:33:16;;;;;;;0.20;0.20;;;18.30;49.10;;;;;;5170485;27;45191;-67
2023/12/23 06:35:43;;;;;;;0.25;0.10;;;18.30;49.10;;;;;;5170262;27;45295;-67
2023/12/23 06:38:10;;;;;;;0.28;0.17;;;18.30;49.10;;;;;;5169927;27;45650;-67
2023/12/23 06:40:38;;;;;;;0.15;0.15;;;18.30;49.10;;;;;;5188457;27;45368;-67
2023/12/23 06:43:05;;;;;;;0.10;0.10;;;18.30;49.10;;;;;;5191364;27;45175;-67
2023/12/23 06:45:32;;;;;;;0.20;0.20;;;18.30;49.00;;;;;;5191383;27;45242;-67
2023/12/23 06:47:59;;;;;;;0.30;0.30;;;18.30;49.00;;;;;;5190990;27;46744;-67
2023/12/23 06:50:25;;;;;;;0.15;0.15;;;18.30;49.00;;;;;;5178782;27;45376;-67
2023/12/23 06:52:52;;;;;;;0.10;0.10;;;18.30;49.00;;;;;;5169941;27;45323;-67
2023/12/23 06:55:19;;;;;;;0.10;0.10;;;18.30;49.00;;;;;;5170072;27;45206;-67
2023/12/23 06:57:48;;;;;;;0.20;0.20;;;18.40;49.00;;;;;;5169544;27;46403;-67
2023/12/23 07:00:16;;;;;;;0.30;0.30;;;18.40;49.00;;;;;;5169426;27;45386;-67
2023/12/23 07:02:43;;;;;;;0.20;0.20;;;18.40;49.00;;;;;;5170165;27;45415;-67
2023/12/23 07:05:09;;;;;;;0.22;0.20;;;18.40;48.90;;;;;;5169859;27;45337;-66
2023/12/23 07:07:36;;;;;;;0.17;0.17;;;18.40;48.90;;;;;;5166895;27;46160;-67
2023/12/23 07:10:03;;;;;;;0.10;0.10;;;18.40;48.80;;;;;;5168841;27;45274;-67
2023/12/23 07:12:30;;;;;;;0.35;0.20;;;18.40;48.80;;;;;;5169271;27;45402;-67
2023/12/23 07:14:58;;;;;;;1.92;0.30;;;18.40;48.80;;;;;;5169534;27;45365;-67
2023/12/23 07:17:25;;;;;;;0.20;0.20;;;18.50;48.80;;;;;;5169456;27;47448;-67
2023/12/23 07:19:52;;;;;;;0.98;0.28;;;18.50;48.70;;;;;;5169431;27;45291;-67
2023/12/23 07:22:19;;;;;;;0.20;0.20;;;18.50;48.60;;;;;;5175971;27;45317;-67
2023/12/23 07:24:45;;;;;;;0.10;0.10;;;18.50;48.60;;;;;;5191285;27;45468;-67
2023/12/23 07:27:12;;;;;;;0.28;0.17;;;18.50;48.60;;;;;;5194178;27;45471;-67
2023/12/23 07:29:39;;;;;;;0.13;0.05;;;18.50;48.60;;;;;;5194248;27;45261;-67
2023/12/23 07:32:08;;;;;;;0.20;0.20;;;18.60;48.60;;;;;;5194326;27;45240;-67
2023/12/23 07:34:35;;;;;;;0.15;0.15;;;18.60;48.60;;;;;;5194345;27;45364;-67
2023/12/23 07:37:02;;;;;;;0.20;0.20;;;18.50;48.50;;;;;;5194021;27;46440;-67
2023/12/23 07:39:28;;;;;;;0.20;0.20;;;18.60;48.50;;;;;;5193573;27;45379;-67
2023/12/23 07:41:57;;;;;;;0.10;0.10;;;18.60;48.50;;;;;;5194026;27;45331;-67
2023/12/23 07:44:24;;;;;;;0.30;0.30;;;18.60;48.40;;;;;;5194140;27;45301;-67
2023/12/23 07:46:51;;;;;;;0.20;0.20;;;18.60;48.40;;;;;;5193929;27;45353;-67
2023/12/23 07:49:19;;;;;;;0.40;0.20;;;18.60;48.40;;;;;;5191219;27;45379;-67
2023/12/23 07:51:46;;;;;;;0.08;0.08;;;18.60;48.30;;;;;;5172079;27;45374;-67
2023/12/23 07:54:14;;;;;;;0.17;0.03;;;18.70;48.30;;;;;;5172372;27;45272;-67
2023/12/23 07:56:40;;;;;;;0.20;0.20;;;18.70;48.30;;;;;;5172393;27;45752;-67
2023/12/23 07:59:07;;;;;;;0.30;0.30;;;18.70;48.30;;;;;;5172460;27;45438;-67
2023/12/23 08:01:34;;;;;;;0.20;0.20;;;18.70;48.30;;;;;;5172509;27;45407;-67
2023/12/23 08:04:01;;;;;;;0.20;0.20;;;18.70;48.30;;;;;;5172573;27;45310;-67
2023/12/23 08:06:29;;;;;;;0.10;0.10;;;18.70;48.20;;;;;;5172070;27;46400;-67
2023/12/23 08:08:56;;;;;;;0.43;0.20;;;18.80;48.20;;;;;;5172306;27;45294;-67
2023/12/23 08:11:23;;;;;;;0.20;0.20;;;18.80;48.20;;;;;;5172357;27;45271;-67
2023/12/23 08:13:50;;;;;;;0.15;0.15;;;18.80;48.20;;;;;;5172519;27;45323;-67
2023/12/23 08:16:17;;;;;;;0.20;0.20;;;18.80;48.10;;;;;;5171595;27;46935;-67
2023/12/23 08:18:44;;;;;;;0.20;0.20;;;18.80;48.10;;;;;;5172092;27;45316;-67
2023/12/23 08:21:11;;;;;;;0.13;0.13;;;18.80;48.10;;;;;;5172252;27;45315;-67
2023/12/23 08:23:39;;;;;;;0.20;0.20;;;18.80;48.00;;;;;;5190511;27;45452;-67
2023/12/23 08:26:06;;;;;;;0.38;0.32;;;18.80;48.00;;;;;;5193117;27;45533;-67
2023/12/23 08:28:33;;;;;;;1.75;0.20;;;18.80;48.00;;;;;;5193306;27;45324;-67
2023/12/23 08:31:00;;;;;;;0.60;0.20;;;18.90;48.00;;;;;;5193536;27;45392;-67
2023/12/23 08:33:27;;;;;;;0.28;0.28;;;18.90;48.00;;;;;;5192993;27;45403;-66
2023/12/23 08:35:53;;;;;;;0.20;0.20;;;18.90;47.90;;;;;;5191887;27;46555;-67
2023/12/23 08:38:20;;;;;;;0.10;0.10;;;18.90;48.00;;;;;;5193109;27;45263;-67
2023/12/23 08:40:48;;;;;;;0.80;0.20;;;18.90;48.00;;;;;;5192866;27;45320;-67
2023/12/23 08:43:16;;;;;;;0.28;0.13;;;18.90;48.00;;;;;;5193505;27;45295;-67
2023/12/23 08:45:43;;;;;;;0.20;0.20;;;18.90;48.00;;;;;;5192812;27;46722;-67
2023/12/23 08:48:10;;;;;;;0.40;0.40;;;18.90;47.90;;;;;;5192934;27;45278;-67
2023/12/23 08:50:36;;;;;;;0.30;0.30;;;18.90;47.90;;;;;;5178919;27;45274;-67
2023/12/23 08:53:03;;;;;;;0.32;0.00;;;18.90;47.80;;;;;;5171972;27;45162;-67
2023/12/23 08:55:30;;;;;;;0.13;0.10;;;18.90;47.80;;;;;;5171459;27;46638;-67
2023/12/23 08:57:58;;;;;;;0.20;0.20;;;19.00;47.90;;;;;;5171486;27;45392;-67
2023/12/23 09:00:25;;;;;;;0.15;0.15;;;19.00;47.90;;;;;;5171605;27;45268;-67
2023/12/23 09:02:52;;;;;;;0.10;0.10;;;19.00;47.80;;;;;;5171679;27;45290;-67
2023/12/23 09:05:19;;;;;;;0.75;0.30;;;19.00;47.80;;;;;;5171424;27;46395;-67
2023/12/23 09:07:46;;;;;;;0.13;0.13;;;19.00;47.80;;;;;;5171005;27;45327;-67
2023/12/23 09:10:13;;;;;;;0.22;0.17;;;19.00;47.80;;;;;;5171308;27;45387;-67
2023/12/23 09:12:40;;;;;;;0.55;0.20;;;19.00;47.80;;;;;;5171455;27;45445;-67
2023/12/23 09:15:08;;;;;;;0.20;0.20;;;19.00;47.70;;;;;;5171019;27;45302;-67
2023/12/23 09:17:35;;;;;;;1.13;0.45;;;19.00;47.70;;;;;;5170177;27;45397;-67
2023/12/23 09:20:04;;;;;;;0.15;0.15;;;19.00;47.70;;;;;;5171292;27;45307;-67
2023/12/23 09:22:31;;;;;;;0.17;0.17;;;19.00;47.70;;;;;;5179789;27;45535;-67
2023/12/23 09:24:57;;;;;;;0.40;0.32;;;19.10;47.90;;;;;;5192285;27;45483;-67
2023/12/23 09:27:24;;;;;;;0.15;0.15;;;19.10;47.70;;;;;;5192368;27;45196;-67
2023/12/23 09:29:51;;;;;;;0.10;0.10;;;19.00;47.60;;;;;;5192577;27;45421;-67
2023/12/23 09:32:19;;;;;;;0.20;0.20;;;19.10;47.70;;;;;;5192381;27;45348;-67
2023/12/23 09:34:46;;;;;;;0.05;0.05;;;19.10;47.70;;;;;;5192255;27;47362;-67
2023/12/23 09:37:13;;;;;;;0.17;0.17;;;19.10;47.60;;;;;;5192082;27;45255;-66
2023/12/23 09:39:40;;;;;;;0.13;0.13;;;19.10;47.60;;;;;;5191288;27;45347;-64
2023/12/23 09:42:07;;;;;;;0.30;0.30;;;19.10;47.60;;;;;;5192179;27;45435;-67
2023/12/23 09:44:34;;;;;;;0.43;0.20;;;19.10;47.80;;;;;;5191942;27;47003;-67
2023/12/23 09:47:01;;;;;;;1.50;0.22;;;19.20;48.50;;;;;;5191791;27;45344;-67
2023/12/23 09:49:29;;;;;;;9.18;0.65;;;19.30;47.40;;;;;;5187927;27;45345;-66
2023/12/23 09:51:56;;;;;;;1.48;0.10;;;19.30;48.00;;;;;;5158446;27;45382;-66
2023/12/23 09:54:22;;;;;;;3.63;0.28;;;19.40;47.80;;;;;;5149855;27;45345;-68
2023/12/23 09:56:49;;;;;;;0.70;0.28;;;19.40;47.60;;;;;;5149474;27;45399;-66
2023/12/23 09:59:16;;;;;;;0.73;0.40;;;19.50;47.40;;;;;;5149838;27;45259;-69
2023/12/23 10:01:43;;;;;;;1.42;0.40;;;19.60;47.30;;;;;;5149686;27;45143;-66
2023/12/23 10:04:09;;;;;;;0.13;0.13;;;19.70;47.60;;;;;;5149385;27;46408;-65
2023/12/23 10:06:38;;;;;;;3.80;1.30;;;19.70;47.20;;;;;;5149290;27;45330;-67
2023/12/23 10:09:05;;;;;;;1.13;0.50;;;19.70;47.30;;;;;;5149472;27;45402;-67
2023/12/23 10:11:31;;;;;;;0.57;0.47;;;19.60;46.70;;;;;;5150036;27;45284;-68
2023/12/23 10:13:58;;;;;;;0.43;0.43;;;19.50;46.00;;;;;;5150415;27;47878;-67
2023/12/23 10:16:25;;;;;;;1.58;0.32;;;19.40;45.50;;;;;;5166024;27;45408;-67
2023/12/23 10:18:52;;;;;;;0.25;0.25;;;19.20;45.60;;;;;;5170561;27;45314;-67
2023/12/23 10:21:19;;;;;;;0.47;0.22;;;19.20;46.00;;;;;;5167713;27;45428;-69
2023/12/23 10:23:47;;;;;;;0.30;0.30;;;19.20;46.00;;;;;;5147490;27;45333;-65
2023/12/23 10:26:14;;;;;;;1.38;1.15;;;19.20;46.10;;;;;;5155705;27;45421;-66
2023/12/23 10:28:42;;;;;;;2.78;0.60;;;19.10;46.00;;;;;;5167354;27;45254;-65
2023/12/23 10:31:11;;;;;;;0.90;0.70;;;19.10;46.10;;;;;;5160867;27;45342;-67
2023/12/23 10:33:42;;;;;;;0.50;0.50;;;19.10;46.20;;;;;;5154068;27;46313;-68
2023/12/23 10:36:09;;;;;;;0.82;0.50;;;19.00;46.10;;;;;;5167161;27;45326;-68
2023/12/23 10:38:35;;;;;;;0.35;0.35;;;19.10;46.40;;;;;;5166245;27;45314;-66
2023/12/23 10:41:07;;;;;;;0.93;0.50;;;19.00;46.10;;;;;;5159321;27;45413;-68
2023/12/23 10:43:34;;;;;;;0.30;0.30;;;19.10;46.30;;;;;;5157414;27;45313;-65
2023/12/23 10:46:01;;;;;;;0.45;0.45;;;19.10;46.10;;;;;;5166053;27;45461;-67
2023/12/23 10:48:28;;;;;;;0.65;0.35;;;19.10;45.90;;;;;;5164056;27;45320;-64
2023/12/23 10:50:55;;;;;;;0.75;0.47;;;19.10;45.90;;;;;;5164727;27;45394;-68
2023/12/23 10:53:22;;;;;;;0.30;0.30;;;19.20;45.80;;;;;;5156720;27;45305;-65
2023/12/23 10:55:48;;;;;;;0.20;0.20;;;19.30;46.30;;;;;;5160151;27;45456;-64
2023/12/23 10:58:17;;;;;;;0.45;0.40;;;19.30;45.50;;;;;;5158267;27;45385;-66
2023/12/23 11:00:43;;;;;;;0.10;0.10;;;19.40;45.80;;;;;;5164565;27;45361;-66
2023/12/23 11:03:10;;;;;;;0.28;0.28;;;19.40;45.30;;;;;;5150484;27;46357;-68
2023/12/23 11:05:41;;;;;;;0.45;0.43;;;19.40;45.30;;;;;;5162828;27;45271;-65
2023/12/23 11:08:09;;;;;;;0.32;0.32;;;19.50;45.30;;;;;;5163420;27;45128;-65
2023/12/23 11:10:36;;;;;;;0.45;0.45;;;19.50;45.10;;;;;;5162321;27;45379;-70
2023/12/23 11:13:03;;;;;;;1.45;0.20;;;19.50;44.90;;;;;;5167552;27;46299;-68
2023/12/23 11:15:31;;;;;;;0.50;0.50;;;19.40;44.90;;;;;;5163055;27;45553;-67
2023/12/23 11:17:58;;;;;;;1.35;0.40;;;19.40;45.10;;;;;;5157770;27;45429;-68
2023/12/23 11:20:44;;;;;;;0.32;0.32;;;19.40;45.00;;;;;;5156679;27;45399;-67
2023/12/23 11:23:32;;;;;;;1.10;0.32;;;19.30;45.00;;;;;;5160862;27;46202;-66
2023/12/23 11:25:59;;;;;;;0.30;0.30;;;19.20;45.30;;;;;;5148746;27;45401;-67
2023/12/23 11:28:26;;;;;;;0.30;0.30;;;19.10;45.40;;;;;;5164457;27;45564;-67
2023/12/23 11:30:55;;;;;;;1.75;0.30;;;19.10;45.60;;;;;;5167976;27;45339;-67
2023/12/23 11:33:22;;;;;;;0.20;0.20;;;19.20;45.80;;;;;;5151733;27;45337;-67
2023/12/23 11:35:49;;;;;;;0.52;0.40;;;19.20;46.40;;;;;;5156991;27;45559;-67
2023/12/23 11:38:16;;;;;;;0.20;0.20;;;19.20;45.80;;;;;;5169354;27;45303;-67
2023/12/23 11:40:43;;;;;;;0.20;0.20;;;19.20;45.80;;;;;;5153434;27;45374;-67
2023/12/23 11:43:10;;;;;;;0.30;0.22;;;19.30;45.80;;;;;;5165007;27;46417;-67
2023/12/23 11:45:37;;;;;;;0.75;0.43;;;19.30;45.80;;;;;;5147929;27;45298;-67
2023/12/23 11:48:07;;;;;;;3.25;0.25;;;19.30;45.80;;;;;;5152170;27;45494;-67
2023/12/23 11:50:34;;;;;;;0.10;0.10;;;19.30;45.80;;;;;;5160635;27;45328;-67
2023/12/23 11:53:00;;;;;;;0.20;0.10;;;19.30;45.80;;;;;;5168730;27;46384;-67
2023/12/23 11:55:27;;;;;;;0.20;0.20;;;19.30;45.90;;;;;;5150878;27;45679;-67
2023/12/23 11:57:54;;;;;;;0.25;0.17;;;19.30;45.90;;;;;;5161757;27;45396;-67
2023/12/23 12:00:21;;;;;;;0.10;0.10;;;19.40;46.00;;;;;;5166152;27;45374;-67
2023/12/23 12:02:48;;;;;;;3.80;0.40;;;19.40;46.00;;;;;;5153282;27;46354;-67
2023/12/23 12:05:16;;;;;;;2.80;0.30;;;19.40;46.00;;;;;;5164179;27;45178;-67
2023/12/23 12:07:43;;;;;;;0.25;0.25;;;19.30;46.00;;;;;;5153187;27;45351;-67
2023/12/23 12:10:10;;;;;;;0.20;0.20;;;19.30;46.10;;;;;;5159506;27;45472;-67
2023/12/23 12:12:36;;;;;;;0.20;0.20;;;19.30;46.10;;;;;;5163939;27;47285;-67
2023/12/23 12:15:04;;;;;;;0.28;0.20;;;19.40;46.10;;;;;;5154771;27;45281;-67
2023/12/23 12:17:30;;;;;;;0.45;0.20;;;19.40;46.10;;;;;;5154800;27;45331;-63
2023/12/23 12:19:57;;;;;;;0.20;0.20;;;19.40;46.20;;;;;;5169635;27;45410;-65
2023/12/23 12:22:25;;;;;;;0.22;0.22;;;19.40;46.10;;;;;;5158492;27;45467;-64
2023/12/23 12:24:52;;;;;;;0.10;0.10;;;19.40;46.20;;;;;;5167333;27;45448;-65
2023/12/23 12:27:19;;;;;;;0.28;0.22;;;19.40;46.30;;;;;;5170172;27;45333;-65
2023/12/23 12:29:45;;;;;;;0.20;0.20;;;19.40;46.40;;;;;;5157057;27;45465;-65
2023/12/23 12:32:13;;;;;;;0.20;0.20;;;19.40;46.30;;;;;;5162330;27;46824;-64
2023/12/23 12:34:40;;;;;;;0.10;0.10;;;19.30;46.30;;;;;;5150572;27;45455;-65
2023/12/23 12:37:08;;;;;;;1.02;0.47;;;19.30;46.30;;;;;;5161016;27;45404;-65
2023/12/23 12:39:36;;;;;;;6.95;0.95;;;19.30;46.30;;;;;;5165433;27;45393;-66
2023/12/23 12:42:03;;;;;;;4.82;0.63;;;19.30;46.30;;;;;;5151132;27;46317;-64
2023/12/23 12:44:30;;;;;;;9.15;1.05;;;19.30;46.40;;;;;;5166103;27;45408;-65
2023/12/23 12:46:57;;;;;;;14.75;1.55;;;19.30;46.40;;;;;;5159083;27;45529;-64